createdAt,value
2023-02-14T00:03:16.110Z,101478.08
2023-02-14T00:08:18.501Z,101476.52
2023-02-14T00:13:20.798Z,101480.54
2023-02-14T00:18:43.037Z,101480.77
2023-02-14T00:23:45.220Z,101483.80
2023-02-14T00:28:47.510Z,101490.39
2023-02-14T00:33:49.692Z,101504.51
2023-02-14T00:38:52.192Z,101503.23
2023-02-14T00:43:54.372Z,101501.64
2023-02-14T00:48:56.756Z,101494.00
2023-02-14T00:53:58.939Z,101504.02
2023-02-14T00:59:01.126Z,101509.60
2023-02-14T01:04:04.029Z,101513.40
2023-02-14T01:09:06.310Z,101521.92
2023-02-14T01:14:08.503Z,101517.71
2023-02-14T01:19:10.784Z,101523.77
2023-02-14T01:24:13.069Z,101528.58
2023-02-14T01:29:15.268Z,101528.73
2023-02-14T01:34:17.443Z,101529.13
2023-02-14T01:39:19.624Z,101526.39
2023-02-14T01:44:30.716Z,101518.70
2023-02-14T01:49:38.331Z,101515.27
2023-02-14T01:54:46.257Z,101503.77
2023-02-14T01:59:53.757Z,101509.34
2023-02-14T02:04:56.465Z,101509.87
2023-02-14T02:10:02.440Z,101515.23
2023-02-14T02:15:06.633Z,101514.84
2023-02-14T02:20:44.103Z,101511.01
2023-02-14T02:26:07.352Z,101516.88
2023-02-14T02:31:25.057Z,101514.55
2023-02-14T02:36:59.848Z,101515.21
2023-02-14T02:42:23.539Z,101520.55
2023-02-14T02:51:53.190Z,101525.10
2023-02-14T02:57:00.114Z,101535.38
2023-02-14T03:02:15.377Z,101539.33
2023-02-14T03:07:35.078Z,101541.95
2023-02-14T03:12:54.054Z,101544.11
2023-02-14T03:18:00.231Z,101545.73
2023-02-14T03:23:17.876Z,101545.86
2023-02-14T03:28:58.563Z,101554.42
2023-02-14T03:34:15.629Z,101547.91
2023-02-14T03:39:55.462Z,101543.31
2023-02-14T03:45:01.689Z,101547.20
2023-02-14T03:50:15.161Z,101543.02
2023-02-14T03:55:26.906Z,101546.83
2023-02-14T04:00:32.873Z,101549.40
2023-02-14T04:05:38.447Z,101549.36
2023-02-14T04:10:43.491Z,101556.59
2023-02-14T04:15:47.121Z,101559.80
2023-02-14T04:20:51.028Z,101556.45
2023-02-14T04:25:54.852Z,101556.47
2023-02-14T04:31:03.600Z,101561.08
2023-02-14T04:36:07.824Z,101559.81
2023-02-14T04:41:11.237Z,101561.63
2023-02-14T04:46:14.806Z,101561.25
2023-02-14T04:51:18.679Z,101567.59
2023-02-14T04:56:22.085Z,101581.91
2023-02-14T05:01:25.807Z,101577.88
2023-02-14T05:06:29.321Z,101584.97
2023-02-14T05:11:33.452Z,101590.44
2023-02-14T05:16:38.706Z,101586.41
2023-02-14T05:21:42.324Z,101587.04
2023-02-14T05:26:45.937Z,101572.96
2023-02-14T05:31:50.012Z,101599.90
2023-02-14T05:36:55.225Z,101599.89
2023-02-14T05:41:59.451Z,101607.51
2023-02-14T05:47:03.180Z,101610.33
2023-02-14T05:52:07.104Z,101615.91
2023-02-14T05:57:10.621Z,101617.16
2023-02-14T06:02:16.175Z,101620.05
2023-02-14T06:07:20.011Z,101633.31
2023-02-14T06:12:23.424Z,101631.67
2023-02-14T06:17:27.045Z,101630.60
2023-02-14T06:22:30.832Z,101637.77
2023-02-14T06:27:34.586Z,101643.70
2023-02-14T06:32:38.202Z,101656.30
2023-02-14T06:37:42.498Z,101666.06
2023-02-14T06:42:46.051Z,101660.20
2023-02-14T06:47:49.570Z,101673.47
2023-02-14T06:52:53.086Z,101677.55
2023-02-14T06:57:56.812Z,101687.23
2023-02-14T07:03:00.395Z,101688.65
2023-02-14T07:08:04.547Z,101686.01
2023-02-14T07:13:08.070Z,101699.35
2023-02-14T07:18:11.997Z,101700.55
2023-02-14T07:23:15.419Z,101707.63
2023-02-14T07:28:19.213Z,101716.60
2023-02-14T07:33:22.746Z,101723.33
2023-02-14T07:38:26.260Z,101723.58
2023-02-14T07:43:29.678Z,101727.70
2023-02-14T07:48:34.482Z,101731.14
2023-02-14T07:53:38.340Z,101728.51
2023-02-14T07:58:41.756Z,101727.66
2023-02-14T08:03:49.614Z,101731.81
2023-02-14T08:08:53.392Z,101728.16
2023-02-14T08:13:57.024Z,101730.73
2023-02-14T08:19:01.545Z,101726.61
2023-02-14T08:24:05.366Z,101734.88
2023-02-14T08:29:08.779Z,101738.64
2023-02-14T08:34:12.504Z,101734.20
2023-02-14T08:39:16.119Z,101740.92
2023-02-14T08:44:19.645Z,101742.10
2023-02-14T08:49:23.454Z,101745.38
2023-02-14T08:54:26.871Z,101753.82
2023-02-14T08:59:30.488Z,101749.63
2023-02-14T09:04:35.909Z,101750.98
2023-02-14T09:09:39.816Z,101754.59
2023-02-14T09:14:44.935Z,101753.48
2023-02-14T09:19:48.364Z,101759.42
2023-02-14T09:24:51.956Z,101754.06
2023-02-14T09:29:55.404Z,101753.44
2023-02-14T09:34:58.999Z,101760.69
2023-02-14T09:40:02.920Z,101756.23
2023-02-14T09:45:25.996Z,101762.31
2023-02-14T09:50:54.336Z,101760.81
2023-02-14T09:56:16.742Z,101767.14
2023-02-14T10:01:43.810Z,101768.00
2023-02-14T10:07:14.979Z,101774.35
2023-02-14T10:12:21.669Z,101773.73
2023-02-14T10:17:49.857Z,101775.61
2023-02-14T10:23:06.071Z,101769.50
2023-02-14T10:28:15.244Z,101770.26
2023-02-14T10:33:23.035Z,101760.10
2023-02-14T10:38:32.386Z,101759.39
2023-02-14T10:43:54.027Z,101759.20
2023-02-14T10:49:12.804Z,101756.56
2023-02-14T10:54:22.793Z,101760.31
2023-02-14T10:59:46.866Z,101770.23
2023-02-14T11:04:51.938Z,101770.27
2023-02-14T11:09:57.073Z,101765.10
2023-02-14T11:15:15.848Z,101757.42
2023-02-14T11:20:20.319Z,101758.38
2023-02-14T11:25:30.968Z,101759.41
2023-02-14T11:30:39.527Z,101755.50
2023-02-14T11:35:51.504Z,101754.80
2023-02-14T11:40:57.682Z,101756.89
2023-02-14T11:46:38.566Z,101757.35
2023-02-14T11:51:48.349Z,101757.25
2023-02-14T11:57:02.144Z,101758.65
2023-02-14T12:02:27.371Z,101745.35
2023-02-14T12:07:30.844Z,101748.67
2023-02-14T12:12:35.897Z,101744.80
2023-02-14T12:17:40.129Z,101745.46
2023-02-14T12:22:45.999Z,101740.84
2023-02-14T12:27:57.299Z,101738.73
2023-02-14T12:33:01.437Z,101733.93
2023-02-14T12:38:43.441Z,101728.55
2023-02-14T12:43:51.049Z,101726.84
2023-02-14T12:49:30.617Z,101723.35
2023-02-14T12:54:46.519Z,101721.22
2023-02-14T13:00:17.890Z,101721.55
2023-02-14T13:05:55.095Z,101722.83
2023-02-14T13:11:04.753Z,101718.38
2023-02-14T13:16:22.587Z,101716.94
2023-02-14T13:21:31.855Z,101716.02
2023-02-14T13:26:39.976Z,101712.84
2023-02-14T13:31:43.876Z,101711.27
2023-02-14T13:36:48.441Z,101712.90
2023-02-14T13:41:52.055Z,101708.61
2023-02-14T13:46:55.498Z,101703.70
2023-02-14T13:52:03.971Z,101703.33
2023-02-14T13:57:32.707Z,101698.59
2023-02-14T14:02:56.796Z,101699.77
2023-02-14T14:08:20.499Z,101699.23
2023-02-14T14:13:42.472Z,101698.84
2023-02-14T14:18:46.065Z,101699.96
2023-02-14T14:24:14.561Z,101696.63
2023-02-14T14:29:47.196Z,101703.24
2023-02-14T14:35:05.829Z,101704.71
2023-02-14T14:40:25.221Z,101708.13
2023-02-14T14:45:31.729Z,101710.58
2023-02-14T14:50:36.830Z,101706.70
2023-02-14T14:55:45.401Z,101710.74
2023-02-14T15:00:52.276Z,101708.30
2023-02-14T15:06:17.735Z,101707.98
2023-02-14T15:11:47.966Z,101713.30
2023-02-14T15:16:53.808Z,101711.55
2023-02-14T15:21:57.879Z,101710.39
2023-02-14T15:27:03.327Z,101708.13
2023-02-14T15:32:10.023Z,101705.88
2023-02-14T15:37:13.947Z,101702.56
2023-02-14T15:42:31.917Z,101705.14
2023-02-14T15:47:35.414Z,101700.25
2023-02-14T15:52:41.392Z,101705.35
2023-02-14T15:57:48.789Z,101709.43
2023-02-14T16:02:57.729Z,101714.31
2023-02-14T16:08:08.036Z,101710.24
2023-02-14T16:13:15.015Z,101720.77
2023-02-14T16:18:32.129Z,101724.48
2023-02-14T16:23:37.023Z,101725.51
2023-02-14T16:28:42.463Z,101735.13
2023-02-14T16:33:46.976Z,101738.04
2023-02-14T16:38:51.311Z,101739.35
2023-02-14T16:43:55.567Z,101742.05
2023-02-14T16:49:00.299Z,101738.55
2023-02-14T16:54:07.819Z,101728.20
2023-02-14T16:59:11.312Z,101734.95
2023-02-14T17:04:15.369Z,101738.25
2023-02-14T17:09:24.497Z,101736.83
2023-02-14T17:14:32.713Z,101730.29
2023-02-14T17:19:36.945Z,101730.39
2023-02-14T17:24:41.224Z,101732.90
2023-02-14T17:29:44.695Z,101732.58
2023-02-14T17:34:49.471Z,101732.89
2023-02-14T17:39:53.571Z,101734.73
2023-02-14T17:44:56.980Z,101728.98
2023-02-14T17:50:00.497Z,101733.09
2023-02-14T17:55:04.319Z,101741.84
2023-02-14T18:00:11.610Z,101743.02
2023-02-14T18:05:17.250Z,101742.55
2023-02-14T18:10:21.960Z,101743.63
2023-02-14T18:15:27.702Z,101744.04
2023-02-14T18:20:31.116Z,101747.64
2023-02-14T18:25:34.940Z,101749.13
2023-02-14T18:30:38.451Z,101750.84
2023-02-14T18:35:42.274Z,101753.52
2023-02-14T18:40:45.787Z,101748.11
2023-02-14T18:45:49.533Z,101751.19
2023-02-14T18:50:53.736Z,101746.48
2023-02-14T18:55:57.263Z,101740.11
2023-02-14T19:01:14.922Z,101742.84
2023-02-14T19:06:19.673Z,101739.75
2023-02-14T19:11:25.722Z,101742.24
2023-02-14T19:16:34.007Z,101741.70
2023-02-14T19:21:37.776Z,101739.14
2023-02-14T19:26:41.296Z,101733.06
2023-02-14T19:31:48.675Z,101724.48
2023-02-14T19:36:53.851Z,101727.66
2023-02-14T19:41:57.980Z,101729.62
2023-02-14T19:47:04.214Z,101726.34
2023-02-14T19:52:25.705Z,101728.42
2023-02-14T19:57:29.764Z,101729.77
2023-02-14T20:02:33.261Z,101727.27
2023-02-14T20:07:36.860Z,101725.09
2023-02-14T20:12:40.375Z,101724.61
2023-02-14T20:17:43.889Z,101729.61
2023-02-14T20:22:47.507Z,101731.95
2023-02-14T20:27:54.192Z,101734.92
2023-02-14T20:32:57.606Z,101733.20
2023-02-14T20:38:01.325Z,101733.75
2023-02-14T20:43:04.843Z,101733.21
2023-02-14T20:48:08.375Z,101730.88
2023-02-14T20:53:14.026Z,101728.30
2023-02-14T20:58:17.844Z,101725.88
2023-02-14T21:03:23.133Z,101722.14
2023-02-14T21:08:26.927Z,101723.61
2023-02-14T21:13:30.651Z,101729.23
2023-02-14T21:18:35.822Z,101724.95
2023-02-14T21:23:39.320Z,101724.40
2023-02-14T21:28:42.833Z,101725.41
2023-02-14T21:33:49.532Z,101723.08
2023-02-14T21:38:58.475Z,101728.54
2023-02-14T21:44:03.403Z,101721.90
2023-02-14T21:49:25.985Z,101711.76
2023-02-14T21:54:29.882Z,101703.41
2023-02-14T21:59:33.217Z,101706.52
2023-02-14T22:04:38.372Z,101701.38
2023-02-14T22:09:41.884Z,101699.35
2023-02-14T22:14:45.506Z,101700.98
2023-02-14T22:19:49.242Z,101703.09
2023-02-14T22:24:52.738Z,101705.27
2023-02-14T22:29:56.170Z,101702.14
2023-02-14T22:34:59.765Z,101700.18
2023-02-14T22:40:04.413Z,101699.95
2023-02-14T22:45:08.896Z,101694.18
2023-02-14T22:50:12.256Z,101695.42
2023-02-14T22:55:15.677Z,101697.07
2023-02-14T23:00:19.805Z,101702.12
2023-02-14T23:05:23.313Z,101698.77
2023-02-14T23:10:28.059Z,101701.29
2023-02-14T23:15:50.145Z,101704.41
2023-02-14T23:21:12.364Z,101707.61
2023-02-14T23:26:20.134Z,101708.86
2023-02-14T23:31:23.639Z,101712.52
2023-02-14T23:36:27.421Z,101708.93
2023-02-14T23:41:49.576Z,101704.01
2023-02-14T23:46:55.480Z,101696.98
2023-02-14T23:51:59.265Z,101688.14
2023-02-14T23:57:03.811Z,101688.34
